sensor_id;sensor_type;location;lat;lon;timestamp;P1;durP1;ratioP1;P2;durP2;ratioP2
49910;SDS011;35803;53.096;5.844;2022-07-18T00:02:15;7.32;;;5.47;;
49910;SDS011;35803;53.096;5.844;2022-07-18T00:04:41;7.40;;;5.32;;
49910;SDS011;35803;53.096;5.844;2022-07-18T00:07:07;7.05;;;4.65;;
49910;SDS011;35803;53.096;5.844;2022-07-18T00:09:33;8.68;;;5.35;;
49910;SDS011;35803;53.096;5.844;2022-07-18T00:11:58;7.88;;;5.13;;
49910;SDS011;35803;53.096;5.844;2022-07-18T00:14:24;8.80;;;5.15;;
49910;SDS011;35803;53.096;5.844;2022-07-18T00:16:49;7.13;;;5.43;;
49910;SDS011;35803;53.096;5.844;2022-07-18T00:19:15;7.68;;;4.68;;
49910;SDS011;35803;53.096;5.844;2022-07-18T00:21:41;7.72;;;5.30;;
49910;SDS011;35803;53.096;5.844;2022-07-18T00:24:07;7.70;;;5.22;;
49910;SDS011;35803;53.096;5.844;2022-07-18T00:26:35;7.35;;;5.10;;
49910;SDS011;35803;53.096;5.844;2022-07-18T00:29:03;6.93;;;4.97;;
49910;SDS011;35803;53.096;5.844;2022-07-18T00:31:29;7.20;;;4.80;;
49910;SDS011;35803;53.096;5.844;2022-07-18T00:33:54;8.27;;;4.78;;
49910;SDS011;35803;53.096;5.844;2022-07-18T00:36:20;9.18;;;5.03;;
49910;SDS011;35803;53.096;5.844;2022-07-18T00:38:45;9.43;;;5.40;;
49910;SDS011;35803;53.096;5.844;2022-07-18T00:41:14;7.10;;;5.15;;
49910;SDS011;35803;53.096;5.844;2022-07-18T00:43:40;10.27;;;5.05;;
49910;SDS011;35803;53.096;5.844;2022-07-18T00:46:06;7.97;;;5.07;;
49910;SDS011;35803;53.096;5.844;2022-07-18T00:48:31;8.30;;;5.65;;
49910;SDS011;35803;53.096;5.844;2022-07-18T00:50:57;8.18;;;5.20;;
49910;SDS011;35803;53.096;5.844;2022-07-18T00:53:22;8.77;;;5.20;;
49910;SDS011;35803;53.096;5.844;2022-07-18T00:55:49;7.60;;;5.05;;
49910;SDS011;35803;53.096;5.844;2022-07-18T00:58:14;8.00;;;4.93;;
49910;SDS011;35803;53.096;5.844;2022-07-18T01:00:40;8.70;;;5.30;;
49910;SDS011;35803;53.096;5.844;2022-07-18T01:03:24;10.30;;;5.38;;
49910;SDS011;35803;53.096;5.844;2022-07-18T01:05:51;6.97;;;5.13;;
49910;SDS011;35803;53.096;5.844;2022-07-18T01:08:16;6.88;;;4.82;;
49910;SDS011;35803;53.096;5.844;2022-07-18T01:10:42;8.05;;;5.10;;
49910;SDS011;35803;53.096;5.844;2022-07-18T01:13:08;7.65;;;4.90;;
49910;SDS011;35803;53.096;5.844;2022-07-18T01:15:34;6.95;;;4.93;;
49910;SDS011;35803;53.096;5.844;2022-07-18T01:18:00;8.95;;;4.97;;
49910;SDS011;35803;53.096;5.844;2022-07-18T01:20:28;10.30;;;5.50;;
49910;SDS011;35803;53.096;5.844;2022-07-18T01:22:54;7.82;;;5.07;;
49910;SDS011;35803;53.096;5.844;2022-07-18T01:25:20;7.03;;;4.57;;
49910;SDS011;35803;53.096;5.844;2022-07-18T01:27:45;8.18;;;4.95;;
49910;SDS011;35803;53.096;5.844;2022-07-18T01:30:11;7.47;;;5.20;;
49910;SDS011;35803;53.096;5.844;2022-07-18T01:32:36;8.05;;;5.25;;
49910;SDS011;35803;53.096;5.844;2022-07-18T01:35:02;11.93;;;5.65;;
49910;SDS011;35803;53.096;5.844;2022-07-18T01:37:28;8.02;;;4.82;;
49910;SDS011;35803;53.096;5.844;2022-07-18T01:39:53;7.68;;;4.80;;
49910;SDS011;35803;53.096;5.844;2022-07-18T01:42:19;8.50;;;5.25;;
49910;SDS011;35803;53.096;5.844;2022-07-18T01:44:44;6.72;;;4.88;;
49910;SDS011;35803;53.096;5.844;2022-07-18T01:47:10;8.85;;;4.70;;
49910;SDS011;35803;53.096;5.844;2022-07-18T01:49:36;8.80;;;5.50;;
49910;SDS011;35803;53.096;5.844;2022-07-18T01:52:03;7.25;;;5.07;;
49910;SDS011;35803;53.096;5.844;2022-07-18T01:54:29;6.97;;;5.05;;
49910;SDS011;35803;53.096;5.844;2022-07-18T01:56:56;8.15;;;4.63;;
49910;SDS011;35803;53.096;5.844;2022-07-18T01:59:22;8.95;;;5.13;;
49910;SDS011;35803;53.096;5.844;2022-07-18T02:01:48;9.57;;;6.00;;
49910;SDS011;35803;53.096;5.844;2022-07-18T02:04:14;8.82;;;5.15;;
49910;SDS011;35803;53.096;5.844;2022-07-18T02:06:40;10.18;;;5.38;;
49910;SDS011;35803;53.096;5.844;2022-07-18T02:09:08;8.43;;;5.18;;
49910;SDS011;35803;53.096;5.844;2022-07-18T02:11:34;8.93;;;4.88;;
49910;SDS011;35803;53.096;5.844;2022-07-18T02:14:04;7.20;;;4.82;;
49910;SDS011;35803;53.096;5.844;2022-07-18T02:16:30;8.20;;;4.90;;
49910;SDS011;35803;53.096;5.844;2022-07-18T02:18:56;6.32;;;4.05;;
49910;SDS011;35803;53.096;5.844;2022-07-18T02:21:21;7.50;;;4.68;;
49910;SDS011;35803;53.096;5.844;2022-07-18T02:23:47;6.93;;;4.78;;
49910;SDS011;35803;53.096;5.844;2022-07-18T02:26:13;7.00;;;4.95;;
49910;SDS011;35803;53.096;5.844;2022-07-18T02:28:38;8.68;;;4.55;;
49910;SDS011;35803;53.096;5.844;2022-07-18T02:31:04;8.25;;;5.18;;
49910;SDS011;35803;53.096;5.844;2022-07-18T02:33:30;7.80;;;5.10;;
49910;SDS011;35803;53.096;5.844;2022-07-18T02:35:56;9.32;;;4.78;;
49910;SDS011;35803;53.096;5.844;2022-07-18T02:38:21;7.82;;;4.55;;
49910;SDS011;35803;53.096;5.844;2022-07-18T02:40:47;6.60;;;4.85;;
49910;SDS011;35803;53.096;5.844;2022-07-18T02:43:12;8.02;;;4.93;;
49910;SDS011;35803;53.096;5.844;2022-07-18T02:45:38;7.75;;;5.05;;
49910;SDS011;35803;53.096;5.844;2022-07-18T02:48:03;6.30;;;4.32;;
49910;SDS011;35803;53.096;5.844;2022-07-18T02:50:29;8.07;;;4.97;;
49910;SDS011;35803;53.096;5.844;2022-07-18T02:52:55;9.52;;;4.75;;
49910;SDS011;35803;53.096;5.844;2022-07-18T02:55:22;7.28;;;4.85;;
49910;SDS011;35803;53.096;5.844;2022-07-18T02:57:48;6.68;;;4.30;;
49910;SDS011;35803;53.096;5.844;2022-07-18T03:00:14;6.97;;;4.70;;
49910;SDS011;35803;53.096;5.844;2022-07-18T03:02:40;7.68;;;4.53;;
49910;SDS011;35803;53.096;5.844;2022-07-18T03:05:07;5.80;;;4.25;;
49910;SDS011;35803;53.096;5.844;2022-07-18T03:07:32;9.02;;;5.20;;
49910;SDS011;35803;53.096;5.844;2022-07-18T03:09:58;7.65;;;4.68;;
49910;SDS011;35803;53.096;5.844;2022-07-18T03:12:23;7.18;;;4.35;;
49910;SDS011;35803;53.096;5.844;2022-07-18T03:14:49;7.28;;;4.45;;
49910;SDS011;35803;53.096;5.844;2022-07-18T03:17:15;6.35;;;4.45;;
49910;SDS011;35803;53.096;5.844;2022-07-18T03:19:40;6.57;;;4.20;;
49910;SDS011;35803;53.096;5.844;2022-07-18T03:22:06;5.03;;;3.72;;
49910;SDS011;35803;53.096;5.844;2022-07-18T03:24:32;7.05;;;4.22;;
49910;SDS011;35803;53.096;5.844;2022-07-18T03:26:57;7.80;;;4.43;;
49910;SDS011;35803;53.096;5.844;2022-07-18T03:29:23;9.13;;;4.57;;
49910;SDS011;35803;53.096;5.844;2022-07-18T03:31:48;7.63;;;4.40;;
49910;SDS011;35803;53.096;5.844;2022-07-18T03:34:14;6.70;;;4.07;;
49910;SDS011;35803;53.096;5.844;2022-07-18T03:36:40;7.50;;;4.53;;
49910;SDS011;35803;53.096;5.844;2022-07-18T03:39:08;6.25;;;4.15;;
49910;SDS011;35803;53.096;5.844;2022-07-18T03:41:38;8.13;;;4.32;;
49910;SDS011;35803;53.096;5.844;2022-07-18T03:44:04;7.05;;;4.50;;
49910;SDS011;35803;53.096;5.844;2022-07-18T03:46:31;6.80;;;4.22;;
49910;SDS011;35803;53.096;5.844;2022-07-18T03:48:56;6.40;;;4.20;;
49910;SDS011;35803;53.096;5.844;2022-07-18T03:51:22;7.60;;;4.47;;
49910;SDS011;35803;53.096;5.844;2022-07-18T03:53:48;7.35;;;4.60;;
49910;SDS011;35803;53.096;5.844;2022-07-18T03:56:13;6.18;;;4.55;;
49910;SDS011;35803;53.096;5.844;2022-07-18T03:58:39;7.28;;;4.45;;
49910;SDS011;35803;53.096;5.844;2022-07-18T04:01:04;9.43;;;4.57;;
49910;SDS011;35803;53.096;5.844;2022-07-18T04:03:30;6.97;;;4.30;;
49910;SDS011;35803;53.096;5.844;2022-07-18T04:05:55;7.53;;;4.15;;
49910;SDS011;35803;53.096;5.844;2022-07-18T04:08:21;6.97;;;4.45;;
49910;SDS011;35803;53.096;5.844;2022-07-18T04:10:46;6.95;;;4.43;;
49910;SDS011;35803;53.096;5.844;2022-07-18T04:13:12;7.95;;;4.07;;
49910;SDS011;35803;53.096;5.844;2022-07-18T04:15:38;8.18;;;4.28;;
49910;SDS011;35803;53.096;5.844;2022-07-18T04:18:04;7.13;;;4.00;;
49910;SDS011;35803;53.096;5.844;2022-07-18T04:20:33;7.00;;;4.13;;
49910;SDS011;35803;53.096;5.844;2022-07-18T04:23:00;6.47;;;4.50;;
49910;SDS011;35803;53.096;5.844;2022-07-18T04:25:29;7.53;;;4.43;;
49910;SDS011;35803;53.096;5.844;2022-07-18T04:27:59;6.78;;;4.22;;
49910;SDS011;35803;53.096;5.844;2022-07-18T04:30:25;8.43;;;4.63;;
49910;SDS011;35803;53.096;5.844;2022-07-18T04:32:51;6.85;;;4.13;;
49910;SDS011;35803;53.096;5.844;2022-07-18T04:35:17;6.47;;;4.30;;
49910;SDS011;35803;53.096;5.844;2022-07-18T04:37:43;8.52;;;4.43;;
49910;SDS011;35803;53.096;5.844;2022-07-18T04:40:09;8.18;;;4.95;;
49910;SDS011;35803;53.096;5.844;2022-07-18T04:42:35;6.80;;;4.28;;
49910;SDS011;35803;53.096;5.844;2022-07-18T04:45:02;7.45;;;4.07;;
49910;SDS011;35803;53.096;5.844;2022-07-18T04:47:27;6.40;;;4.40;;
49910;SDS011;35803;53.096;5.844;2022-07-18T04:49:54;8.77;;;4.45;;
49910;SDS011;35803;53.096;5.844;2022-07-18T04:52:20;5.38;;;3.97;;
49910;SDS011;35803;53.096;5.844;2022-07-18T04:54:46;7.20;;;4.00;;
49910;SDS011;35803;53.096;5.844;2022-07-18T04:57:11;6.57;;;4.13;;
49910;SDS011;35803;53.096;5.844;2022-07-18T04:59:39;7.68;;;4.38;;
49910;SDS011;35803;53.096;5.844;2022-07-18T05:02:08;6.88;;;4.30;;
49910;SDS011;35803;53.096;5.844;2022-07-18T05:04:34;6.95;;;4.45;;
49910;SDS011;35803;53.096;5.844;2022-07-18T05:07:03;6.75;;;4.47;;
49910;SDS011;35803;53.096;5.844;2022-07-18T05:09:29;6.00;;;3.72;;
49910;SDS011;35803;53.096;5.844;2022-07-18T05:11:54;6.95;;;3.88;;
49910;SDS011;35803;53.096;5.844;2022-07-18T05:14:20;6.68;;;3.80;;
49910;SDS011;35803;53.096;5.844;2022-07-18T05:16:46;6.28;;;3.90;;
49910;SDS011;35803;53.096;5.844;2022-07-18T05:19:12;7.65;;;3.70;;
49910;SDS011;35803;53.096;5.844;2022-07-18T05:21:37;5.72;;;3.45;;
49910;SDS011;35803;53.096;5.844;2022-07-18T05:24:03;6.93;;;3.80;;
49910;SDS011;35803;53.096;5.844;2022-07-18T05:26:29;6.32;;;3.55;;
49910;SDS011;35803;53.096;5.844;2022-07-18T05:28:54;5.57;;;3.53;;
49910;SDS011;35803;53.096;5.844;2022-07-18T05:31:20;6.45;;;3.50;;
49910;SDS011;35803;53.096;5.844;2022-07-18T05:33:45;6.70;;;3.65;;
49910;SDS011;35803;53.096;5.844;2022-07-18T05:36:11;6.82;;;3.25;;
49910;SDS011;35803;53.096;5.844;2022-07-18T05:38:36;6.57;;;3.17;;
49910;SDS011;35803;53.096;5.844;2022-07-18T05:41:02;4.55;;;3.00;;
49910;SDS011;35803;53.096;5.844;2022-07-18T05:43:27;4.53;;;2.97;;
49910;SDS011;35803;53.096;5.844;2022-07-18T05:45:53;5.25;;;3.03;;
49910;SDS011;35803;53.096;5.844;2022-07-18T05:48:18;4.55;;;2.90;;
49910;SDS011;35803;53.096;5.844;2022-07-18T05:50:44;6.40;;;3.08;;
49910;SDS011;35803;53.096;5.844;2022-07-18T05:53:09;6.75;;;2.80;;
49910;SDS011;35803;53.096;5.844;2022-07-18T05:55:36;5.10;;;3.17;;
49910;SDS011;35803;53.096;5.844;2022-07-18T05:58:02;4.60;;;3.08;;
49910;SDS011;35803;53.096;5.844;2022-07-18T06:00:27;4.20;;;2.90;;
49910;SDS011;35803;53.096;5.844;2022-07-18T06:02:53;4.75;;;2.80;;
49910;SDS011;35803;53.096;5.844;2022-07-18T06:05:18;4.47;;;2.75;;
49910;SDS011;35803;53.096;5.844;2022-07-18T06:07:44;5.10;;;2.65;;
49910;SDS011;35803;53.096;5.844;2022-07-18T06:10:09;6.70;;;3.08;;
49910;SDS011;35803;53.096;5.844;2022-07-18T06:12:35;5.95;;;2.90;;
49910;SDS011;35803;53.096;5.844;2022-07-18T06:15:03;6.40;;;3.20;;
49910;SDS011;35803;53.096;5.844;2022-07-18T06:17:29;5.80;;;3.35;;
49910;SDS011;35803;53.096;5.844;2022-07-18T06:19:55;5.15;;;3.17;;
49910;SDS011;35803;53.096;5.844;2022-07-18T06:22:21;5.00;;;3.08;;
49910;SDS011;35803;53.096;5.844;2022-07-18T06:24:49;6.50;;;3.45;;
49910;SDS011;35803;53.096;5.844;2022-07-18T06:27:15;6.38;;;3.05;;
49910;SDS011;35803;53.096;5.844;2022-07-18T06:29:40;7.20;;;3.78;;
49910;SDS011;35803;53.096;5.844;2022-07-18T06:32:06;5.80;;;3.00;;
49910;SDS011;35803;53.096;5.844;2022-07-18T06:34:31;7.00;;;3.50;;
49910;SDS011;35803;53.096;5.844;2022-07-18T06:36:57;6.05;;;3.50;;
49910;SDS011;35803;53.096;5.844;2022-07-18T06:39:22;7.32;;;3.53;;
49910;SDS011;35803;53.096;5.844;2022-07-18T06:41:47;8.23;;;3.70;;
49910;SDS011;35803;53.096;5.844;2022-07-18T06:44:13;6.22;;;3.42;;
49910;SDS011;35803;53.096;5.844;2022-07-18T06:46:39;4.95;;;3.42;;
49910;SDS011;35803;53.096;5.844;2022-07-18T06:49:05;5.00;;;2.75;;
49910;SDS011;35803;53.096;5.844;2022-07-18T06:51:31;5.15;;;3.22;;
49910;SDS011;35803;53.096;5.844;2022-07-18T06:53:57;4.65;;;2.90;;
49910;SDS011;35803;53.096;5.844;2022-07-18T06:56:23;3.65;;;2.75;;
49910;SDS011;35803;53.096;5.844;2022-07-18T06:58:48;5.13;;;2.70;;
49910;SDS011;35803;53.096;5.844;2022-07-18T07:01:15;5.03;;;3.10;;
49910;SDS011;35803;53.096;5.844;2022-07-18T07:03:41;4.05;;;2.78;;
49910;SDS011;35803;53.096;5.844;2022-07-18T07:06:07;4.05;;;2.72;;
49910;SDS011;35803;53.096;5.844;2022-07-18T07:08:32;5.60;;;3.00;;
49910;SDS011;35803;53.096;5.844;2022-07-18T07:10:58;4.05;;;2.72;;
49910;SDS011;35803;53.096;5.844;2022-07-18T07:13:24;6.10;;;2.33;;
49910;SDS011;35803;53.096;5.844;2022-07-18T07:15:49;3.35;;;2.40;;
49910;SDS011;35803;53.096;5.844;2022-07-18T07:18:15;6.07;;;2.80;;
49910;SDS011;35803;53.096;5.844;2022-07-18T07:20:40;4.82;;;3.00;;
49910;SDS011;35803;53.096;5.844;2022-07-18T07:23:06;4.75;;;3.60;;
49910;SDS011;35803;53.096;5.844;2022-07-18T07:25:33;4.30;;;2.85;;
49910;SDS011;35803;53.096;5.844;2022-07-18T07:27:58;4.93;;;2.88;;
49910;SDS011;35803;53.096;5.844;2022-07-18T07:30:24;3.97;;;2.72;;
49910;SDS011;35803;53.096;5.844;2022-07-18T07:32:49;3.95;;;2.42;;
49910;SDS011;35803;53.096;5.844;2022-07-18T07:35:17;5.00;;;2.45;;
49910;SDS011;35803;53.096;5.844;2022-07-18T07:37:47;3.55;;;2.25;;
49910;SDS011;35803;53.096;5.844;2022-07-18T07:40:14;5.70;;;2.47;;
49910;SDS011;35803;53.096;5.844;2022-07-18T07:42:40;3.72;;;2.28;;
49910;SDS011;35803;53.096;5.844;2022-07-18T07:45:06;5.13;;;2.13;;
49910;SDS011;35803;53.096;5.844;2022-07-18T07:47:32;4.25;;;2.08;;
49910;SDS011;35803;53.096;5.844;2022-07-18T07:49:59;3.55;;;2.17;;
49910;SDS011;35803;53.096;5.844;2022-07-18T07:52:24;6.15;;;2.10;;
49910;SDS011;35803;53.096;5.844;2022-07-18T07:54:50;4.15;;;1.90;;
49910;SDS011;35803;53.096;5.844;2022-07-18T07:57:16;2.22;;;1.70;;
49910;SDS011;35803;53.096;5.844;2022-07-18T07:59:42;2.90;;;1.67;;
49910;SDS011;35803;53.096;5.844;2022-07-18T08:02:07;3.10;;;1.65;;
49910;SDS011;35803;53.096;5.844;2022-07-18T08:04:33;2.28;;;1.67;;
49910;SDS011;35803;53.096;5.844;2022-07-18T08:06:58;4.35;;;1.60;;
49910;SDS011;35803;53.096;5.844;2022-07-18T08:09:23;2.45;;;1.58;;
49910;SDS011;35803;53.096;5.844;2022-07-18T08:11:49;1.88;;;1.35;;
49910;SDS011;35803;53.096;5.844;2022-07-18T08:14:14;1.40;;;1.20;;
49910;SDS011;35803;53.096;5.844;2022-07-18T08:16:40;1.60;;;1.15;;
49910;SDS011;35803;53.096;5.844;2022-07-18T08:19:05;1.48;;;1.10;;
49910;SDS011;35803;53.096;5.844;2022-07-18T08:21:31;2.92;;;1.25;;
49910;SDS011;35803;53.096;5.844;2022-07-18T08:23:56;2.55;;;1.13;;
49910;SDS011;35803;53.096;5.844;2022-07-18T08:26:23;1.42;;;1.13;;
49910;SDS011;35803;53.096;5.844;2022-07-18T08:28:48;1.60;;;1.20;;
49910;SDS011;35803;53.096;5.844;2022-07-18T08:31:14;3.17;;;1.23;;
49910;SDS011;35803;53.096;5.844;2022-07-18T08:33:39;1.42;;;1.00;;
49910;SDS011;35803;53.096;5.844;2022-07-18T08:36:07;1.98;;;1.00;;
49910;SDS011;35803;53.096;5.844;2022-07-18T08:38:33;1.88;;;1.27;;
49910;SDS011;35803;53.096;5.844;2022-07-18T08:40:58;3.67;;;1.40;;
49910;SDS011;35803;53.096;5.844;2022-07-18T08:43:25;2.17;;;1.20;;
49910;SDS011;35803;53.096;5.844;2022-07-18T08:45:54;1.40;;;1.13;;
49910;SDS011;35803;53.096;5.844;2022-07-18T08:48:21;1.63;;;1.10;;
49910;SDS011;35803;53.096;5.844;2022-07-18T08:50:48;2.47;;;0.93;;
49910;SDS011;35803;53.096;5.844;2022-07-18T08:53:14;2.00;;;1.10;;
49910;SDS011;35803;53.096;5.844;2022-07-18T08:55:40;1.10;;;0.98;;
49910;SDS011;35803;53.096;5.844;2022-07-18T08:58:06;2.20;;;1.25;;
49910;SDS011;35803;53.096;5.844;2022-07-18T09:00:33;2.35;;;1.20;;
49910;SDS011;35803;53.096;5.844;2022-07-18T09:02:59;2.05;;;1.20;;
49910;SDS011;35803;53.096;5.844;2022-07-18T09:05:27;2.25;;;1.15;;
49910;SDS011;35803;53.096;5.844;2022-07-18T09:07:54;2.47;;;1.20;;
49910;SDS011;35803;53.096;5.844;2022-07-18T09:10:46;3.17;;;1.27;;
49910;SDS011;35803;53.096;5.844;2022-07-18T09:13:17;2.45;;;1.20;;
49910;SDS011;35803;53.096;5.844;2022-07-18T09:16:02;1.58;;;1.20;;
49910;SDS011;35803;53.096;5.844;2022-07-18T09:18:38;1.75;;;1.20;;
49910;SDS011;35803;53.096;5.844;2022-07-18T09:21:15;2.88;;;1.13;;
49910;SDS011;35803;53.096;5.844;2022-07-18T09:23:44;2.08;;;1.17;;
49910;SDS011;35803;53.096;5.844;2022-07-18T09:29:04;3.25;;;1.15;;
49910;SDS011;35803;53.096;5.844;2022-07-18T09:31:33;1.75;;;1.20;;
49910;SDS011;35803;53.096;5.844;2022-07-18T09:34:00;2.78;;;1.13;;
49910;SDS011;35803;53.096;5.844;2022-07-18T09:36:27;1.83;;;1.15;;
49910;SDS011;35803;53.096;5.844;2022-07-18T09:38:53;2.92;;;1.10;;
49910;SDS011;35803;53.096;5.844;2022-07-18T09:41:23;1.70;;;1.02;;
49910;SDS011;35803;53.096;5.844;2022-07-18T09:43:52;3.95;;;0.90;;
49910;SDS011;35803;53.096;5.844;2022-07-18T09:46:18;1.73;;;1.48;;
49910;SDS011;35803;53.096;5.844;2022-07-18T09:48:43;2.15;;;1.20;;
49910;SDS011;35803;53.096;5.844;2022-07-18T09:51:09;1.45;;;1.00;;
49910;SDS011;35803;53.096;5.844;2022-07-18T09:53:39;1.25;;;1.05;;
49910;SDS011;35803;53.096;5.844;2022-07-18T09:56:12;3.10;;;1.10;;
49910;SDS011;35803;53.096;5.844;2022-07-18T09:58:40;2.17;;;1.20;;
49910;SDS011;35803;53.096;5.844;2022-07-18T10:01:08;3.08;;;1.10;;
49910;SDS011;35803;53.096;5.844;2022-07-18T10:03:35;3.38;;;1.20;;
49910;SDS011;35803;53.096;5.844;2022-07-18T10:06:04;1.92;;;1.05;;
49910;SDS011;35803;53.096;5.844;2022-07-18T10:08:30;1.42;;;1.00;;
49910;SDS011;35803;53.096;5.844;2022-07-18T10:10:57;1.40;;;0.80;;
49910;SDS011;35803;53.096;5.844;2022-07-18T10:13:27;3.25;;;1.25;;
49910;SDS011;35803;53.096;5.844;2022-07-18T10:15:53;1.83;;;1.10;;
49910;SDS011;35803;53.096;5.844;2022-07-18T10:18:20;1.30;;;1.20;;
49910;SDS011;35803;53.096;5.844;2022-07-18T10:21:03;2.85;;;1.33;;
49910;SDS011;35803;53.096;5.844;2022-07-18T10:23:35;1.48;;;1.27;;
49910;SDS011;35803;53.096;5.844;2022-07-18T10:26:14;1.30;;;1.20;;
49910;SDS011;35803;53.096;5.844;2022-07-18T10:31:21;1.95;;;1.25;;
49910;SDS011;35803;53.096;5.844;2022-07-18T10:34:25;1.25;;;1.08;;
49910;SDS011;35803;53.096;5.844;2022-07-18T10:39:32;1.65;;;1.10;;
49910;SDS011;35803;53.096;5.844;2022-07-18T10:58:19;1.63;;;1.08;;
49910;SDS011;35803;53.096;5.844;2022-07-18T11:02:49;1.17;;;0.85;;
49910;SDS011;35803;53.096;5.844;2022-07-18T11:18:28;3.53;;;1.08;;
49910;SDS011;35803;53.096;5.844;2022-07-18T11:20:55;1.67;;;1.20;;
49910;SDS011;35803;53.096;5.844;2022-07-18T11:23:25;2.13;;;1.35;;
49910;SDS011;35803;53.096;5.844;2022-07-18T11:25:52;1.90;;;1.30;;
49910;SDS011;35803;53.096;5.844;2022-07-18T11:28:21;1.38;;;1.00;;
49910;SDS011;35803;53.096;5.844;2022-07-18T11:31:04;1.70;;;1.20;;
49910;SDS011;35803;53.096;5.844;2022-07-18T11:33:34;1.85;;;1.10;;
49910;SDS011;35803;53.096;5.844;2022-07-18T11:36:08;1.85;;;1.10;;
49910;SDS011;35803;53.096;5.844;2022-07-18T11:38:38;1.90;;;1.15;;
49910;SDS011;35803;53.096;5.844;2022-07-18T11:41:05;3.22;;;1.38;;
49910;SDS011;35803;53.096;5.844;2022-07-18T11:43:31;1.10;;;1.00;;
49910;SDS011;35803;53.096;5.844;2022-07-18T11:48:32;1.42;;;0.93;;
49910;SDS011;35803;53.096;5.844;2022-07-18T11:50:58;2.40;;;1.00;;
49910;SDS011;35803;53.096;5.844;2022-07-18T11:53:24;1.35;;;1.25;;
49910;SDS011;35803;53.096;5.844;2022-07-18T11:55:50;1.80;;;1.20;;
49910;SDS011;35803;53.096;5.844;2022-07-18T11:58:16;0.77;;;0.77;;
49910;SDS011;35803;53.096;5.844;2022-07-18T12:00:42;2.95;;;1.30;;
49910;SDS011;35803;53.096;5.844;2022-07-18T12:03:10;1.73;;;1.20;;
49910;SDS011;35803;53.096;5.844;2022-07-18T12:05:49;1.98;;;1.30;;
49910;SDS011;35803;53.096;5.844;2022-07-18T12:13:42;2.13;;;1.33;;
49910;SDS011;35803;53.096;5.844;2022-07-18T12:18:51;1.85;;;1.30;;
49910;SDS011;35803;53.096;5.844;2022-07-18T12:21:18;1.50;;;1.17;;
49910;SDS011;35803;53.096;5.844;2022-07-18T12:23:44;2.28;;;1.52;;
49910;SDS011;35803;53.096;5.844;2022-07-18T12:26:09;1.83;;;1.48;;
49910;SDS011;35803;53.096;5.844;2022-07-18T12:29:02;1.60;;;1.10;;
49910;SDS011;35803;53.096;5.844;2022-07-18T12:31:40;0.95;;;0.90;;
49910;SDS011;35803;53.096;5.844;2022-07-18T12:34:14;2.35;;;1.35;;
49910;SDS011;35803;53.096;5.844;2022-07-18T12:36:53;1.25;;;1.10;;
49910;SDS011;35803;53.096;5.844;2022-07-18T12:39:32;1.25;;;1.08;;
49910;SDS011;35803;53.096;5.844;2022-07-18T12:41:58;1.10;;;1.00;;
49910;SDS011;35803;53.096;5.844;2022-07-18T12:44:25;1.00;;;0.98;;
49910;SDS011;35803;53.096;5.844;2022-07-18T12:46:52;1.42;;;1.02;;
49910;SDS011;35803;53.096;5.844;2022-07-18T12:49:18;2.58;;;1.08;;
49910;SDS011;35803;53.096;5.844;2022-07-18T12:51:43;1.52;;;1.00;;
49910;SDS011;35803;53.096;5.844;2022-07-18T12:54:09;1.88;;;1.10;;
49910;SDS011;35803;53.096;5.844;2022-07-18T12:56:34;1.38;;;1.00;;
49910;SDS011;35803;53.096;5.844;2022-07-18T12:59:00;1.38;;;0.82;;
49910;SDS011;35803;53.096;5.844;2022-07-18T13:01:26;1.10;;;0.90;;
49910;SDS011;35803;53.096;5.844;2022-07-18T13:03:51;1.00;;;0.90;;
49910;SDS011;35803;53.096;5.844;2022-07-18T13:06:17;0.98;;;0.80;;
49910;SDS011;35803;53.096;5.844;2022-07-18T13:08:42;0.85;;;0.85;;
49910;SDS011;35803;53.096;5.844;2022-07-18T13:11:08;0.85;;;0.85;;
49910;SDS011;35803;53.096;5.844;2022-07-18T13:13:33;0.90;;;0.90;;
49910;SDS011;35803;53.096;5.844;2022-07-18T13:15:58;1.80;;;0.90;;
49910;SDS011;35803;53.096;5.844;2022-07-18T13:18:24;1.50;;;0.90;;
49910;SDS011;35803;53.096;5.844;2022-07-18T13:20:49;1.52;;;1.00;;
49910;SDS011;35803;53.096;5.844;2022-07-18T13:23:15;1.13;;;0.85;;
49910;SDS011;35803;53.096;5.844;2022-07-18T13:25:41;0.95;;;0.90;;
49910;SDS011;35803;53.096;5.844;2022-07-18T13:28:06;1.65;;;0.90;;
49910;SDS011;35803;53.096;5.844;2022-07-18T13:30:32;1.52;;;1.08;;
49910;SDS011;35803;53.096;5.844;2022-07-18T13:32:58;1.98;;;1.08;;
49910;SDS011;35803;53.096;5.844;2022-07-18T13:35:24;1.00;;;0.90;;
49910;SDS011;35803;53.096;5.844;2022-07-18T13:37:52;1.02;;;0.90;;
49910;SDS011;35803;53.096;5.844;2022-07-18T13:40:17;1.23;;;1.00;;
49910;SDS011;35803;53.096;5.844;2022-07-18T13:42:43;1.10;;;0.90;;
49910;SDS011;35803;53.096;5.844;2022-07-18T13:45:09;1.00;;;0.80;;
49910;SDS011;35803;53.096;5.844;2022-07-18T13:47:35;1.25;;;1.08;;
49910;SDS011;35803;53.096;5.844;2022-07-18T13:50:01;2.60;;;1.05;;
49910;SDS011;35803;53.096;5.844;2022-07-18T13:52:26;3.03;;;0.95;;
49910;SDS011;35803;53.096;5.844;2022-07-18T13:54:52;1.38;;;1.13;;
49910;SDS011;35803;53.096;5.844;2022-07-18T13:57:20;1.17;;;1.08;;
49910;SDS011;35803;53.096;5.844;2022-07-18T13:59:45;2.00;;;1.20;;
49910;SDS011;35803;53.096;5.844;2022-07-18T14:02:11;1.67;;;1.05;;
49910;SDS011;35803;53.096;5.844;2022-07-18T14:04:36;1.30;;;1.20;;
49910;SDS011;35803;53.096;5.844;2022-07-18T14:07:02;1.60;;;1.50;;
49910;SDS011;35803;53.096;5.844;2022-07-18T14:09:27;1.90;;;1.42;;
49910;SDS011;35803;53.096;5.844;2022-07-18T14:11:53;1.65;;;1.33;;
49910;SDS011;35803;53.096;5.844;2022-07-18T14:14:18;1.45;;;1.15;;
49910;SDS011;35803;53.096;5.844;2022-07-18T14:16:44;1.63;;;1.38;;
49910;SDS011;35803;53.096;5.844;2022-07-18T14:19:09;1.30;;;1.10;;
49910;SDS011;35803;53.096;5.844;2022-07-18T14:21:35;1.40;;;1.25;;
49910;SDS011;35803;53.096;5.844;2022-07-18T14:24:00;1.30;;;1.20;;
49910;SDS011;35803;53.096;5.844;2022-07-18T14:26:26;1.70;;;1.33;;
49910;SDS011;35803;53.096;5.844;2022-07-18T14:28:51;1.48;;;1.30;;
49910;SDS011;35803;53.096;5.844;2022-07-18T14:31:17;4.72;;;1.67;;
49910;SDS011;35803;53.096;5.844;2022-07-18T14:33:43;2.15;;;1.23;;
49910;SDS011;35803;53.096;5.844;2022-07-18T14:36:08;1.83;;;1.40;;
49910;SDS011;35803;53.096;5.844;2022-07-18T14:38:34;2.03;;;1.20;;
49910;SDS011;35803;53.096;5.844;2022-07-18T14:40:59;1.20;;;1.10;;
49910;SDS011;35803;53.096;5.844;2022-07-18T14:43:25;2.08;;;1.40;;
49910;SDS011;35803;53.096;5.844;2022-07-18T14:45:50;1.75;;;1.33;;
49910;SDS011;35803;53.096;5.844;2022-07-18T14:48:17;2.70;;;1.60;;
49910;SDS011;35803;53.096;5.844;2022-07-18T14:50:42;2.17;;;1.60;;
49910;SDS011;35803;53.096;5.844;2022-07-18T14:53:08;3.53;;;1.38;;
49910;SDS011;35803;53.096;5.844;2022-07-18T14:55:34;1.67;;;1.30;;
49910;SDS011;35803;53.096;5.844;2022-07-18T14:57:59;1.77;;;1.27;;
49910;SDS011;35803;53.096;5.844;2022-07-18T15:00:24;1.30;;;1.17;;
49910;SDS011;35803;53.096;5.844;2022-07-18T15:02:50;2.15;;;1.30;;
49910;SDS011;35803;53.096;5.844;2022-07-18T15:05:15;1.42;;;1.15;;
49910;SDS011;35803;53.096;5.844;2022-07-18T15:07:41;1.63;;;1.50;;
49910;SDS011;35803;53.096;5.844;2022-07-18T15:10:07;1.90;;;1.48;;
49910;SDS011;35803;53.096;5.844;2022-07-18T15:12:33;1.50;;;1.23;;
49910;SDS011;35803;53.096;5.844;2022-07-18T15:14:58;1.73;;;1.40;;
49910;SDS011;35803;53.096;5.844;2022-07-18T15:17:24;1.40;;;1.30;;
49910;SDS011;35803;53.096;5.844;2022-07-18T15:19:50;1.50;;;1.40;;
49910;SDS011;35803;53.096;5.844;2022-07-18T15:22:16;1.77;;;1.30;;
49910;SDS011;35803;53.096;5.844;2022-07-18T15:24:41;1.67;;;1.20;;
49910;SDS011;35803;53.096;5.844;2022-07-18T15:27:07;1.60;;;1.35;;
49910;SDS011;35803;53.096;5.844;2022-07-18T15:29:32;1.38;;;1.27;;
49910;SDS011;35803;53.096;5.844;2022-07-18T15:31:58;1.58;;;1.48;;
49910;SDS011;35803;53.096;5.844;2022-07-18T15:34:24;2.13;;;1.35;;
49910;SDS011;35803;53.096;5.844;2022-07-18T15:36:49;2.00;;;1.48;;